createdAt,value
2023-03-16T00:00:51.355Z,70.42
2023-03-16T00:03:24.535Z,70.75
2023-03-16T00:05:57.401Z,70.62
2023-03-16T00:08:30.151Z,70.74
2023-03-16T00:11:03.148Z,70.62
2023-03-16T00:13:37.723Z,70.60
2023-03-16T00:16:10.428Z,70.50
2023-03-16T00:18:43.184Z,70.74
2023-03-16T00:21:16.306Z,70.64
2023-03-16T00:23:49.071Z,70.64
2023-03-16T00:26:22.558Z,70.74
2023-03-16T00:28:56.924Z,70.81
2023-03-16T00:31:29.599Z,70.60
2023-03-16T00:34:02.841Z,70.71
2023-03-16T00:36:38.272Z,70.73
2023-03-16T00:39:12.019Z,70.78
2023-03-16T00:41:44.723Z,70.69
2023-03-16T00:44:18.945Z,70.50
2023-03-16T00:46:51.734Z,70.44
2023-03-16T00:49:24.399Z,70.47
2023-03-16T00:51:57.097Z,70.59
2023-03-16T00:54:30.151Z,70.68
2023-03-16T00:57:04.109Z,70.43
2023-03-16T00:59:38.843Z,70.44
2023-03-16T01:02:12.457Z,70.50
2023-03-16T01:04:45.396Z,70.57
2023-03-16T01:07:18.150Z,70.31
2023-03-16T01:09:51.055Z,70.29
2023-03-16T01:12:23.973Z,70.34
2023-03-16T01:14:58.325Z,70.33
2023-03-16T01:17:34.929Z,70.24
2023-03-16T01:20:12.126Z,70.19
2023-03-16T01:22:45.088Z,70.33
2023-03-16T01:25:18.716Z,70.38
2023-03-16T01:27:54.095Z,70.30
2023-03-16T01:30:28.429Z,70.42
2023-03-16T01:33:01.425Z,70.36
2023-03-16T01:35:34.299Z,70.30
2023-03-16T01:38:07.058Z,70.53
2023-03-16T01:40:39.764Z,70.40
2023-03-16T01:43:12.674Z,70.31
2023-03-16T01:46:10.895Z,70.54
2023-03-16T01:48:44.959Z,70.79
2023-03-16T01:51:21.184Z,71.19
2023-03-16T01:53:57.461Z,71.70
2023-03-16T01:56:34.654Z,71.91
2023-03-16T01:59:10.381Z,72.29
2023-03-16T02:01:45.781Z,72.06
2023-03-16T02:04:25.253Z,72.08
2023-03-16T02:06:59.054Z,71.97
2023-03-16T02:09:32.137Z,71.84
2023-03-16T02:12:05.160Z,71.73
2023-03-16T02:14:37.860Z,71.65
2023-03-16T02:17:12.332Z,71.72
2023-03-16T02:19:50.604Z,71.35
2023-03-16T02:22:25.128Z,71.41
2023-03-16T02:24:57.845Z,71.37
2023-03-16T02:27:35.344Z,71.37
2023-03-16T02:30:12.889Z,70.80
2023-03-16T02:32:47.224Z,71.05
2023-03-16T02:35:21.112Z,70.90
2023-03-16T02:37:54.193Z,71.02
2023-03-16T02:40:29.051Z,70.97
2023-03-16T02:43:03.317Z,71.09
2023-03-16T02:45:40.805Z,70.75
2023-03-16T02:48:15.802Z,71.11
2023-03-16T02:50:50.034Z,70.95
2023-03-16T02:53:23.110Z,71.13
2023-03-16T02:55:55.847Z,71.08
2023-03-16T02:58:28.590Z,71.02
2023-03-16T03:01:03.699Z,71.01
2023-03-16T03:03:36.790Z,70.87
2023-03-16T03:06:09.593Z,70.81
2023-03-16T03:08:42.822Z,70.82
2023-03-16T03:11:15.557Z,70.74
2023-03-16T03:13:48.659Z,70.53
2023-03-16T03:16:23.429Z,70.65
2023-03-16T03:18:56.714Z,70.65
2023-03-16T03:21:29.853Z,71.09
2023-03-16T03:24:02.762Z,70.93
2023-03-16T03:26:35.793Z,70.74
2023-03-16T03:29:08.911Z,70.72
2023-03-16T03:31:43.707Z,70.70
2023-03-16T03:34:16.604Z,71.06
2023-03-16T03:36:49.237Z,70.74
2023-03-16T03:39:22.041Z,70.89
2023-03-16T03:41:54.764Z,70.80
2023-03-16T03:44:27.483Z,70.77
2023-03-16T03:47:01.928Z,70.74
2023-03-16T03:49:34.747Z,70.86
2023-03-16T03:52:07.445Z,70.85
2023-03-16T03:54:40.290Z,71.14
2023-03-16T03:57:13.066Z,71.06
2023-03-16T03:59:46.221Z,70.68
2023-03-16T04:02:20.603Z,70.70
2023-03-16T04:04:53.556Z,70.72
2023-03-16T04:07:26.352Z,70.55
2023-03-16T04:09:59.221Z,70.73
2023-03-16T04:12:32.184Z,70.50
2023-03-16T04:15:05.198Z,70.59
2023-03-16T04:17:39.489Z,70.76
2023-03-16T04:20:15.584Z,70.63
2023-03-16T04:22:48.498Z,70.68
2023-03-16T04:25:21.218Z,70.66
2023-03-16T04:27:54.488Z,70.48
2023-03-16T04:30:27.412Z,70.94
2023-03-16T04:33:01.623Z,70.33
2023-03-16T04:35:34.457Z,70.49
2023-03-16T04:38:07.999Z,70.12
2023-03-16T04:40:40.735Z,70.37
2023-03-16T04:43:13.645Z,70.23
2023-03-16T04:45:46.405Z,70.60
2023-03-16T04:48:20.559Z,70.41
2023-03-16T04:50:53.222Z,70.53
2023-03-16T04:53:26.299Z,70.60
2023-03-16T04:55:59.177Z,70.32
2023-03-16T04:58:32.165Z,70.34
2023-03-16T05:01:04.926Z,70.58
2023-03-16T05:03:39.040Z,70.40
2023-03-16T05:06:12.534Z,70.58
2023-03-16T05:08:45.179Z,70.28
2023-03-16T05:11:17.927Z,70.70
2023-03-16T05:13:51.051Z,70.42
2023-03-16T05:16:24.060Z,70.29
2023-03-16T05:19:00.299Z,70.36
2023-03-16T05:21:34.307Z,70.21
2023-03-16T05:24:07.533Z,70.59
2023-03-16T05:26:40.324Z,70.31
2023-03-16T05:29:13.014Z,70.11
2023-03-16T05:31:47.780Z,70.42
2023-03-16T05:34:21.836Z,70.42
2023-03-16T05:36:54.738Z,70.62
2023-03-16T05:39:28.642Z,70.49
2023-03-16T05:42:01.895Z,70.67
2023-03-16T05:44:34.858Z,70.64
2023-03-16T05:47:07.976Z,70.58
2023-03-16T05:49:42.353Z,70.72
2023-03-16T05:52:15.155Z,70.59
2023-03-16T05:54:48.241Z,70.83
2023-03-16T05:57:20.984Z,70.88
2023-03-16T05:59:54.627Z,70.75
2023-03-16T06:02:27.710Z,70.95
2023-03-16T06:05:02.016Z,70.93
2023-03-16T06:07:35.048Z,71.27
2023-03-16T06:10:08.525Z,71.10
2023-03-16T06:12:42.070Z,71.34
2023-03-16T06:15:14.953Z,71.48
2023-03-16T06:17:48.860Z,71.38
2023-03-16T06:20:25.996Z,71.50
2023-03-16T06:22:58.998Z,71.42
2023-03-16T06:25:31.697Z,71.69
2023-03-16T06:28:04.456Z,71.77
2023-03-16T06:30:37.184Z,72.02
2023-03-16T06:33:10.170Z,72.37
2023-03-16T06:35:44.339Z,72.80
2023-03-16T06:38:17.101Z,72.96
2023-03-16T06:40:52.687Z,73.61
2023-03-16T06:43:25.393Z,73.58
2023-03-16T06:45:59.105Z,73.82
2023-03-16T06:48:32.009Z,73.83
2023-03-16T06:51:07.660Z,73.86
2023-03-16T06:53:40.387Z,73.87
2023-03-16T06:56:13.690Z,74.08
2023-03-16T06:58:46.606Z,74.03
2023-03-16T07:01:19.370Z,74.21
2023-03-16T07:03:52.110Z,74.07
2023-03-16T07:06:26.182Z,74.14
2023-03-16T07:08:59.248Z,74.10
2023-03-16T07:11:32.500Z,74.16
2023-03-16T07:14:05.343Z,74.07
2023-03-16T07:16:38.088Z,73.76
2023-03-16T07:19:14.276Z,74.00
2023-03-16T07:21:48.329Z,74.26
2023-03-16T07:24:21.368Z,74.24
2023-03-16T07:26:54.115Z,74.29
2023-03-16T07:29:26.905Z,74.12
2023-03-16T07:31:59.873Z,73.66
2023-03-16T07:34:32.612Z,73.86
2023-03-16T07:37:08.131Z,73.79
2023-03-16T07:39:41.035Z,73.88
2023-03-16T07:42:14.797Z,73.44
2023-03-16T07:44:47.501Z,73.61
2023-03-16T07:47:20.231Z,73.49
2023-03-16T07:49:53.420Z,73.21
2023-03-16T07:52:27.750Z,73.51
2023-03-16T07:55:00.429Z,73.63
2023-03-16T07:57:33.225Z,73.34
2023-03-16T08:00:07.762Z,72.90
2023-03-16T08:02:40.532Z,73.75
2023-03-16T08:05:14.500Z,73.36
2023-03-16T08:07:48.705Z,72.92
2023-03-16T08:10:22.251Z,73.14
2023-03-16T08:12:55.025Z,72.57
2023-03-16T08:15:27.927Z,72.71
2023-03-16T08:18:02.403Z,71.71
2023-03-16T08:20:35.567Z,73.12
2023-03-16T08:23:09.908Z,73.61
2023-03-16T08:25:42.824Z,73.65
2023-03-16T08:28:16.036Z,73.46
2023-03-16T08:30:51.168Z,72.96
2023-03-16T08:33:24.041Z,72.81
2023-03-16T08:35:59.504Z,72.98
2023-03-16T08:38:34.044Z,73.22
2023-03-16T08:41:07.046Z,72.84
2023-03-16T08:43:39.888Z,73.35
2023-03-16T08:46:13.445Z,73.55
2023-03-16T08:48:46.268Z,74.24
2023-03-16T08:51:19.600Z,73.24
2023-03-16T08:53:54.230Z,73.54
2023-03-16T08:56:27.650Z,73.99
2023-03-16T08:59:00.338Z,73.47
2023-03-16T09:01:34.170Z,73.50
2023-03-16T09:04:06.934Z,74.10
2023-03-16T09:06:39.878Z,73.71
2023-03-16T09:09:14.024Z,73.33
2023-03-16T09:11:47.248Z,71.73
2023-03-16T09:14:20.000Z,73.36
2023-03-16T09:16:53.080Z,71.36
2023-03-16T09:19:27.072Z,72.63
2023-03-16T09:21:59.821Z,73.87
2023-03-16T09:24:33.938Z,71.46
2023-03-16T09:27:06.789Z,72.37
2023-03-16T09:29:41.154Z,72.27
2023-03-16T09:32:14.696Z,71.52
2023-03-16T09:34:47.801Z,72.91
2023-03-16T09:37:20.741Z,73.23
2023-03-16T09:39:58.014Z,72.91
2023-03-16T09:42:36.606Z,70.28
2023-03-16T09:45:14.661Z,72.00
2023-03-16T09:47:49.703Z,70.51
2023-03-16T09:50:26.663Z,71.24
2023-03-16T09:53:03.104Z,69.44
2023-03-16T09:55:38.083Z,71.85
2023-03-16T09:58:17.469Z,71.83
2023-03-16T10:00:54.036Z,70.87
2023-03-16T10:03:32.623Z,68.34
2023-03-16T10:06:06.911Z,70.17
2023-03-16T10:08:40.871Z,67.54
2023-03-16T10:11:22.420Z,63.99
2023-03-16T10:13:57.883Z,68.97
2023-03-16T10:16:33.799Z,67.19
2023-03-16T10:19:11.369Z,65.35
2023-03-16T10:21:45.322Z,68.21
2023-03-16T10:24:25.571Z,66.14
2023-03-16T10:27:00.592Z,65.30
2023-03-16T10:29:36.842Z,65.95
2023-03-16T10:32:13.749Z,63.24
2023-03-16T10:34:48.239Z,66.60
2023-03-16T10:37:21.513Z,65.81
2023-03-16T10:39:54.965Z,68.86
2023-03-16T10:42:29.384Z,66.33
2023-03-16T10:45:03.245Z,68.42
2023-03-16T10:47:36.250Z,68.75
2023-03-16T10:50:14.383Z,70.69
2023-03-16T10:52:48.212Z,70.02
2023-03-16T10:55:23.863Z,73.17
2023-03-16T10:57:57.922Z,70.25
2023-03-16T11:00:31.639Z,69.13
2023-03-16T11:03:14.627Z,71.80
2023-03-16T11:05:47.770Z,70.13
2023-03-16T11:08:22.256Z,69.05
2023-03-16T11:10:59.741Z,71.59
2023-03-16T11:13:35.516Z,69.48
2023-03-16T11:16:16.857Z,71.88
2023-03-16T11:18:53.576Z,73.48
2023-03-16T11:21:32.706Z,70.08
2023-03-16T11:24:06.987Z,74.25
2023-03-16T11:26:42.982Z,71.26
2023-03-16T11:29:20.702Z,67.40
2023-03-16T11:31:55.839Z,69.12
2023-03-16T11:34:30.634Z,69.58
2023-03-16T11:37:06.670Z,69.74
2023-03-16T11:39:42.783Z,73.37
2023-03-16T11:42:21.953Z,67.88
2023-03-16T11:45:01.461Z,67.18
2023-03-16T11:47:53.490Z,65.60
2023-03-16T11:50:30.134Z,65.45
2023-03-16T11:53:06.357Z,70.29
2023-03-16T11:55:42.908Z,69.46
2023-03-16T11:58:23.568Z,69.40
2023-03-16T12:01:03.114Z,70.65
2023-03-16T12:04:02.150Z,70.82
2023-03-16T12:06:40.585Z,70.46
2023-03-16T12:09:25.354Z,68.16
2023-03-16T12:12:01.887Z,68.03
2023-03-16T12:14:38.329Z,59.98
2023-03-16T12:17:15.280Z,65.15
2023-03-16T12:19:51.113Z,64.75
2023-03-16T12:22:28.977Z,66.73
2023-03-16T12:25:02.812Z,66.95
2023-03-16T12:27:37.754Z,68.81
2023-03-16T12:30:20.696Z,66.46
2023-03-16T12:33:00.860Z,68.70
2023-03-16T12:35:38.855Z,68.89
2023-03-16T12:38:20.822Z,65.14
2023-03-16T12:40:59.714Z,69.78
2023-03-16T12:43:39.591Z,72.45
2023-03-16T12:46:15.669Z,71.78
2023-03-16T12:48:52.191Z,65.62
2023-03-16T12:51:33.959Z,70.92
2023-03-16T12:54:08.220Z,64.13
2023-03-16T12:56:45.248Z,65.82
2023-03-16T12:59:19.696Z,68.75
2023-03-16T13:01:53.853Z,69.72
2023-03-16T13:04:33.826Z,68.53
2023-03-16T13:07:09.243Z,65.03
2023-03-16T13:09:44.858Z,67.57
2023-03-16T13:12:24.884Z,62.97
2023-03-16T13:14:57.810Z,70.38
2023-03-16T13:17:32.136Z,69.94
2023-03-16T13:20:30.869Z,69.30
2023-03-16T13:23:24.808Z,68.38
2023-03-16T13:26:03.242Z,66.53
2023-03-16T13:28:38.763Z,65.49
2023-03-16T13:31:21.614Z,65.11
2023-03-16T13:33:55.934Z,67.51
2023-03-16T13:36:31.072Z,66.03
2023-03-16T13:39:05.671Z,65.59
2023-03-16T13:41:38.475Z,63.31
2023-03-16T13:44:14.100Z,66.31
2023-03-16T13:46:49.877Z,70.63
2023-03-16T13:49:22.790Z,71.19
2023-03-16T13:51:57.135Z,71.81
2023-03-16T13:54:30.964Z,71.61
2023-03-16T13:57:07.283Z,68.40
2023-03-16T13:59:41.978Z,67.24
2023-03-16T14:02:18.160Z,68.66
2023-03-16T14:04:50.861Z,68.33
2023-03-16T14:07:26.408Z,67.81
2023-03-16T14:09:59.187Z,66.94
2023-03-16T14:12:31.971Z,65.26
2023-03-16T14:15:07.377Z,67.53
2023-03-16T14:17:43.537Z,71.73
2023-03-16T14:20:20.246Z,69.08
2023-03-16T14:22:54.778Z,71.44
2023-03-16T14:25:29.131Z,69.71
2023-03-16T14:28:02.663Z,69.84
2023-03-16T14:30:35.974Z,69.02
2023-03-16T14:33:30.004Z,68.50
2023-03-16T14:36:09.270Z,65.71
2023-03-16T14:38:44.186Z,67.86
2023-03-16T14:41:22.049Z,68.92
2023-03-16T14:43:56.627Z,68.62
2023-03-16T14:46:30.665Z,68.46
2023-03-16T14:49:05.378Z,69.81
2023-03-16T14:51:40.296Z,64.99
2023-03-16T14:54:16.323Z,68.05
2023-03-16T14:56:50.195Z,68.07
2023-03-16T14:59:23.134Z,68.13
2023-03-16T15:01:56.663Z,65.49
2023-03-16T15:04:31.355Z,68.13
2023-03-16T15:07:08.897Z,67.70
2023-03-16T15:09:44.295Z,68.65
2023-03-16T15:12:18.142Z,68.98
2023-03-16T15:15:08.127Z,69.62
2023-03-16T15:17:40.855Z,67.72
2023-03-16T15:20:14.261Z,65.28
2023-03-16T15:22:47.823Z,68.30
2023-03-16T15:25:24.767Z,68.16
2023-03-16T15:27:57.830Z,69.70
2023-03-16T15:30:31.060Z,66.70
2023-03-16T15:33:04.018Z,73.01
2023-03-16T15:35:37.167Z,67.62
2023-03-16T15:38:14.840Z,67.87
2023-03-16T15:40:51.118Z,67.29
2023-03-16T15:43:25.223Z,69.56
2023-03-16T15:45:58.916Z,65.30
2023-03-16T15:48:31.881Z,69.07
2023-03-16T15:51:07.712Z,72.55
2023-03-16T15:53:41.210Z,73.41
2023-03-16T15:56:17.691Z,71.78
2023-03-16T15:58:50.855Z,73.12
2023-03-16T16:01:25.510Z,73.75
2023-03-16T16:03:59.294Z,75.28
2023-03-16T16:06:32.048Z,70.75
2023-03-16T16:09:04.920Z,72.84
2023-03-16T16:11:39.697Z,72.71
2023-03-16T16:14:13.759Z,72.12
2023-03-16T16:16:46.859Z,70.34
2023-03-16T16:19:19.940Z,70.20
2023-03-16T16:21:52.847Z,73.57
2023-03-16T16:24:25.650Z,74.47
2023-03-16T16:26:59.875Z,73.77
2023-03-16T16:29:34.923Z,73.16
2023-03-16T16:32:21.819Z,73.14
2023-03-16T16:35:03.922Z,70.94
2023-03-16T16:37:37.473Z,72.36
2023-03-16T16:40:11.770Z,72.73
2023-03-16T16:42:46.281Z,70.87
2023-03-16T16:45:20.438Z,72.13
2023-03-16T16:47:55.554Z,71.37
2023-03-16T16:50:29.943Z,70.29
2023-03-16T16:53:02.615Z,70.69
2023-03-16T16:55:35.350Z,70.40
2023-03-16T16:58:23.918Z,70.97
2023-03-16T17:00:59.025Z,70.26
2023-03-16T17:03:31.889Z,69.94
2023-03-16T17:06:04.897Z,69.68
2023-03-16T17:08:38.044Z,70.01
2023-03-16T17:11:13.235Z,70.25
2023-03-16T17:13:47.596Z,70.01
2023-03-16T17:16:22.185Z,70.01
2023-03-16T17:18:55.284Z,69.87
2023-03-16T17:21:29.968Z,69.68
2023-03-16T17:24:02.813Z,70.01
2023-03-16T17:26:39.672Z,70.27
2023-03-16T17:29:17.583Z,69.98
2023-03-16T17:31:50.933Z,70.15
2023-03-16T17:34:24.664Z,70.03
2023-03-16T17:36:57.611Z,69.69
2023-03-16T17:39:32.223Z,70.05
2023-03-16T17:42:06.184Z,70.16
2023-03-16T17:44:41.161Z,69.71
2023-03-16T17:47:17.323Z,69.65
2023-03-16T17:49:50.905Z,70.23
2023-03-16T17:52:25.904Z,69.73
2023-03-16T17:54:58.683Z,70.06
2023-03-16T17:57:32.734Z,69.71
2023-03-16T18:00:09.543Z,70.28
2023-03-16T18:02:45.731Z,69.79
2023-03-16T18:05:19.947Z,69.82
2023-03-16T18:07:53.790Z,69.76
2023-03-16T18:10:28.442Z,70.20
2023-03-16T18:13:03.409Z,69.46
2023-03-16T18:15:37.709Z,70.22
2023-03-16T18:18:15.109Z,70.34
2023-03-16T18:20:48.252Z,69.83
2023-03-16T18:23:22.828Z,70.00
2023-03-16T18:25:57.123Z,70.04
2023-03-16T18:28:30.214Z,69.86
2023-03-16T18:31:05.722Z,70.08
2023-03-16T18:33:39.486Z,70.05
2023-03-16T18:36:17.694Z,70.06
2023-03-16T18:38:51.747Z,70.08
2023-03-16T18:41:25.284Z,70.20
2023-03-16T18:43:58.778Z,69.95
2023-03-16T18:46:34.291Z,70.00
2023-03-16T18:49:14.807Z,70.13
2023-03-16T18:51:50.513Z,70.11
2023-03-16T18:54:24.963Z,69.98
2023-03-16T18:56:58.977Z,70.31
2023-03-16T18:59:32.258Z,69.91
2023-03-16T19:02:11.993Z,69.98
2023-03-16T19:04:45.253Z,70.00
2023-03-16T19:07:24.409Z,70.09
2023-03-16T19:09:57.298Z,69.94
2023-03-16T19:12:30.020Z,70.05
2023-03-16T19:15:04.101Z,70.05
2023-03-16T19:17:38.305Z,69.82
2023-03-16T19:20:14.483Z,69.90
2023-03-16T19:22:49.083Z,70.04
2023-03-16T19:25:25.943Z,70.18
2023-03-16T19:27:59.499Z,69.99
2023-03-16T19:30:33.085Z,69.75
2023-03-16T19:33:12.227Z,70.10
2023-03-16T19:35:51.977Z,70.28
2023-03-16T19:38:26.372Z,70.25
2023-03-16T19:41:00.558Z,70.02
2023-03-16T19:43:33.308Z,70.29
2023-03-16T19:46:06.567Z,70.06
2023-03-16T19:48:42.342Z,69.86
2023-03-16T19:51:16.182Z,70.03
2023-03-16T19:53:48.835Z,69.70
2023-03-16T19:56:26.222Z,70.13
2023-03-16T19:59:00.123Z,70.21
2023-03-16T20:01:33.772Z,69.95
2023-03-16T20:04:14.339Z,70.52
2023-03-16T20:06:49.773Z,70.29
2023-03-16T20:09:23.393Z,70.58
2023-03-16T20:11:56.277Z,70.53
2023-03-16T20:14:30.781Z,70.31
2023-03-16T20:17:03.764Z,70.54
2023-03-16T20:19:38.140Z,70.46
2023-03-16T20:22:17.620Z,70.75
2023-03-16T20:24:51.203Z,71.10
2023-03-16T20:27:24.391Z,71.05
2023-03-16T20:29:57.106Z,70.66
2023-03-16T20:32:33.543Z,70.41
2023-03-16T20:35:14.844Z,71.11
2023-03-16T20:37:47.774Z,70.76
2023-03-16T20:40:20.973Z,70.79
2023-03-16T20:42:53.795Z,70.41
2023-03-16T20:45:27.779Z,70.77
2023-03-16T20:48:00.688Z,70.57
2023-03-16T20:50:35.819Z,71.15
2023-03-16T20:53:08.695Z,70.54
2023-03-16T20:55:41.694Z,71.05
2023-03-16T20:58:18.834Z,70.73
2023-03-16T21:00:52.445Z,70.77
2023-03-16T21:03:26.838Z,70.84
2023-03-16T21:06:01.293Z,70.87
2023-03-16T21:08:34.241Z,71.33
2023-03-16T21:11:19.775Z,71.77
2023-03-16T21:13:53.379Z,71.39
2023-03-16T21:16:26.802Z,71.58
2023-03-16T21:19:00.134Z,71.20
2023-03-16T21:21:34.390Z,71.16
2023-03-16T21:24:08.302Z,71.75
2023-03-16T21:26:41.895Z,71.13
2023-03-16T21:29:16.953Z,71.39
2023-03-16T21:31:50.043Z,71.52
2023-03-16T21:34:24.922Z,71.14
2023-03-16T21:36:59.489Z,71.48
2023-03-16T21:39:32.655Z,71.13
2023-03-16T21:42:05.590Z,71.48
2023-03-16T21:44:39.296Z,71.37
2023-03-16T21:47:22.173Z,71.88
2023-03-16T21:49:55.477Z,71.35
2023-03-16T21:52:30.292Z,71.75
2023-03-16T21:55:03.147Z,71.37
2023-03-16T21:57:35.892Z,72.12
2023-03-16T22:00:10.403Z,71.79
2023-03-16T22:02:43.208Z,72.10
2023-03-16T22:05:36.684Z,71.54
2023-03-16T22:08:14.540Z,71.82
2023-03-16T22:10:47.765Z,72.28
2023-03-16T22:13:20.528Z,72.27
2023-03-16T22:15:54.206Z,72.38
2023-03-16T22:18:28.913Z,72.22
2023-03-16T22:21:03.395Z,72.31
2023-03-16T22:23:38.279Z,72.22
2023-03-16T22:26:21.508Z,72.39
2023-03-16T22:28:55.231Z,72.52
2023-03-16T22:31:30.848Z,72.48
2023-03-16T22:34:04.120Z,72.25
2023-03-16T22:36:36.909Z,71.59
2023-03-16T22:39:13.013Z,72.06
2023-03-16T22:41:45.717Z,72.20
2023-03-16T22:44:22.348Z,71.89
2023-03-16T22:46:55.267Z,71.85
2023-03-16T22:49:29.261Z,71.90
2023-03-16T22:52:02.046Z,71.68
2023-03-16T22:54:36.132Z,71.36
2023-03-16T22:57:10.276Z,71.71
2023-03-16T22:59:43.457Z,71.52
2023-03-16T23:02:16.673Z,71.58
2023-03-16T23:04:49.400Z,71.31
2023-03-16T23:07:22.078Z,71.60
2023-03-16T23:09:56.130Z,71.31
2023-03-16T23:12:28.867Z,71.39
2023-03-16T23:15:01.967Z,71.66
2023-03-16T23:17:34.680Z,72.01
2023-03-16T23:20:17.408Z,71.19
2023-03-16T23:22:50.221Z,71.45
2023-03-16T23:25:24.718Z,71.52
2023-03-16T23:27:58.732Z,71.51
2023-03-16T23:30:31.959Z,71.48
2023-03-16T23:33:05.209Z,71.49
2023-03-16T23:35:37.965Z,71.16
2023-03-16T23:38:11.120Z,71.30
2023-03-16T23:40:45.364Z,71.59
2023-03-16T23:43:18.164Z,71.77
2023-03-16T23:45:51.280Z,71.37
2023-03-16T23:48:24.353Z,71.52
2023-03-16T23:50:57.591Z,71.68
2023-03-16T23:53:30.735Z,71.51
2023-03-16T23:56:05.771Z,71.75
2023-03-16T23:58:38.423Z,71.77
